Time;durP1;ratioP1;P1;durP2;ratioP2;P2;SDS_P1;SDS_P2;PMS_P1;PMS_P2;Temp;Humidity;BMP_temperature;BMP_pressure;BME280_temperature;BME280_humidity;BME280_pressure;Samples;Min_cycle;Max_cycle;Signal;HPM_P1;HPM_P2
2021/12/03 00:02:18;;;;;;;9.38;4.10;;;;;;;;;;5066480;28;20056;-57
2021/12/03 00:04:44;;;;;;;7.63;3.90;;;;;;;;;;5070301;28;20075;-57
2021/12/03 00:07:10;;;;;;;9.40;3.83;;;;;;;;;;5062874;28;20056;-56
2021/12/03 00:09:37;;;;;;;10.13;4.55;;;;;;;;;;5067586;28;20491;-57
2021/12/03 00:12:04;;;;;;;8.23;4.50;;;;;;;;;;5068670;28;20547;-57
2021/12/03 00:14:30;;;;;;;11.88;4.78;;;;;;;;;;5070245;28;20040;-57
2021/12/03 00:16:56;;;;;;;8.50;3.97;;;;;;;;;;5066197;28;20147;-57
2021/12/03 00:19:22;;;;;;;7.40;3.85;;;;;;;;;;5066218;28;20124;-55
2021/12/03 00:21:48;;;;;;;6.28;4.28;;;;;;;;;;5065925;28;20143;-57
2021/12/03 00:24:14;;;;;;;11.13;4.50;;;;;;;;;;5068973;28;20044;-56
2021/12/03 00:26:40;;;;;;;12.50;4.65;;;;;;;;;;5068802;28;20044;-57
2021/12/03 00:29:06;;;;;;;13.15;6.10;;;;;;;;;;5066939;28;20093;-56
2021/12/03 00:31:32;;;;;;;10.80;5.10;;;;;;;;;;5068958;28;20123;-57
2021/12/03 00:33:58;;;;;;;10.65;5.10;;;;;;;;;;5069111;28;20093;-57
2021/12/03 00:36:26;;;;;;;11.73;5.50;;;;;;;;;;5069103;28;20414;-57
2021/12/03 00:38:55;;;;;;;10.95;5.10;;;;;;;;;;5068756;28;20044;-56
2021/12/03 00:41:22;;;;;;;9.27;4.47;;;;;;;;;;5066869;28;20048;-57
2021/12/03 00:43:51;;;;;;;8.80;4.07;;;;;;;;;;5069169;28;20507;-56
2021/12/03 00:46:18;;;;;;;7.63;4.28;;;;;;;;;;5068207;28;20052;-56
2021/12/03 00:48:48;;;;;;;9.02;4.93;;;;;;;;;;5065451;28;20036;-57
2021/12/03 00:51:15;;;;;;;11.55;5.22;;;;;;;;;;5065017;28;20189;-57
2021/12/03 00:53:41;;;;;;;13.38;5.88;;;;;;;;;;5067793;28;20040;-57
2021/12/03 00:56:08;;;;;;;13.80;7.00;;;;;;;;;;5072341;28;20028;-56
2021/12/03 00:58:34;;;;;;;10.73;6.63;;;;;;;;;;5070478;28;20044;-57
2021/12/03 01:01:00;;;;;;;11.10;7.22;;;;;;;;;;5070848;28;20407;-56
2021/12/03 01:03:26;;;;;;;13.32;8.07;;;;;;;;;;5073220;28;20495;-57
2021/12/03 01:05:52;;;;;;;12.10;7.90;;;;;;;;;;5073136;28;20044;-57
2021/12/03 01:08:18;;;;;;;17.08;8.80;;;;;;;;;;5073151;28;20040;-56
2021/12/03 01:10:45;;;;;;;17.75;9.40;;;;;;;;;;5069469;28;20028;-56
2021/12/03 01:13:11;;;;;;;14.30;8.52;;;;;;;;;;5069648;28;20438;-56
2021/12/03 01:15:38;;;;;;;14.40;8.45;;;;;;;;;;5067744;28;20130;-56
2021/12/03 01:18:05;;;;;;;14.32;7.43;;;;;;;;;;5063003;28;20110;-56
2021/12/03 01:20:31;;;;;;;11.02;7.53;;;;;;;;;;5054471;28;20050;-57
2021/12/03 01:22:57;;;;;;;11.77;7.57;;;;;;;;;;5059719;28;20105;-57
2021/12/03 01:25:23;;;;;;;15.68;8.18;;;;;;;;;;5063281;28;20662;-56
2021/12/03 01:27:50;;;;;;;11.18;7.65;;;;;;;;;;5066892;28;20295;-56
2021/12/03 01:30:17;;;;;;;12.82;8.23;;;;;;;;;;5062141;28;21846;-57
2021/12/03 01:32:44;;;;;;;16.38;8.93;;;;;;;;;;5066527;28;20123;-57
2021/12/03 01:35:11;;;;;;;13.85;8.88;;;;;;;;;;5071753;28;20123;-57
2021/12/03 01:37:37;;;;;;;11.30;8.43;;;;;;;;;;5071166;28;20043;-56
2021/12/03 01:40:05;;;;;;;13.75;8.50;;;;;;;;;;5071236;28;20044;-57
2021/12/03 01:42:31;;;;;;;14.00;8.93;;;;;;;;;;5069848;28;20043;-56
2021/12/03 01:44:57;;;;;;;14.02;9.25;;;;;;;;;;5072397;28;20119;-57
2021/12/03 01:47:23;;;;;;;13.95;10.00;;;;;;;;;;5067795;28;20136;-56
2021/12/03 01:49:49;;;;;;;15.23;8.65;;;;;;;;;;5064346;28;20131;-57
2021/12/03 01:52:15;;;;;;;13.23;8.93;;;;;;;;;;5070515;28;20090;-56
2021/12/03 01:54:41;;;;;;;13.30;8.77;;;;;;;;;;5071063;28;20447;-58
2021/12/03 01:57:07;;;;;;;12.48;9.20;;;;;;;;;;5070758;28;20067;-57
2021/12/03 01:59:33;;;;;;;13.35;8.52;;;;;;;;;;5068047;28;20123;-57
2021/12/03 02:01:59;;;;;;;11.65;9.48;;;;;;;;;;5070842;28;20048;-57
2021/12/03 02:04:26;;;;;;;17.48;9.15;;;;;;;;;;5068323;28;20071;-57
2021/12/03 02:06:51;;;;;;;12.57;8.50;;;;;;;;;;5070044;28;20041;-57
2021/12/03 02:09:18;;;;;;;14.13;8.77;;;;;;;;;;5068542;28;20484;-56
2021/12/03 02:11:44;;;;;;;12.13;8.48;;;;;;;;;;5068983;28;20371;-57
2021/12/03 02:14:10;;;;;;;11.50;8.80;;;;;;;;;;5067609;28;20037;-56
2021/12/03 02:16:37;;;;;;;14.40;8.73;;;;;;;;;;5062622;28;20040;-57
2021/12/03 02:19:03;;;;;;;16.00;9.68;;;;;;;;;;5058818;28;20109;-56
2021/12/03 02:21:30;;;;;;;14.25;9.00;;;;;;;;;;5067546;28;20095;-56
2021/12/03 02:23:56;;;;;;;15.30;9.05;;;;;;;;;;5072124;28;20479;-57
2021/12/03 02:26:22;;;;;;;11.35;8.05;;;;;;;;;;5066732;28;20131;-57
2021/12/03 02:28:49;;;;;;;13.32;9.20;;;;;;;;;;5071979;28;20041;-57
2021/12/03 02:31:16;;;;;;;12.82;8.98;;;;;;;;;;5070219;28;20036;-57
2021/12/03 02:33:42;;;;;;;14.57;9.02;;;;;;;;;;5071805;28;20103;-57
2021/12/03 02:36:08;;;;;;;12.40;8.40;;;;;;;;;;5067699;28;20040;-57
2021/12/03 02:38:35;;;;;;;15.50;8.95;;;;;;;;;;5070767;28;20040;-57
2021/12/03 02:41:01;;;;;;;15.23;8.90;;;;;;;;;;5069313;28;20044;-56
2021/12/03 02:43:27;;;;;;;16.58;8.65;;;;;;;;;;5070376;28;20714;-57
2021/12/03 02:45:56;;;;;;;14.68;9.30;;;;;;;;;;5069184;28;20507;-56
2021/12/03 02:48:22;;;;;;;16.85;8.88;;;;;;;;;;5071612;28;20055;-56
2021/12/03 02:50:48;;;;;;;14.63;9.30;;;;;;;;;;5068273;28;20090;-56
2021/12/03 02:53:15;;;;;;;12.68;8.55;;;;;;;;;;5070647;28;20043;-56
2021/12/03 02:55:41;;;;;;;13.00;8.68;;;;;;;;;;5068064;28;20036;-56
2021/12/03 02:58:07;;;;;;;15.27;8.82;;;;;;;;;;5070573;28;20033;-57
2021/12/03 03:00:34;;;;;;;11.57;8.90;;;;;;;;;;5066788;28;20194;-57
2021/12/03 03:03:00;;;;;;;15.95;8.48;;;;;;;;;;5069415;28;20053;-57
2021/12/03 03:05:27;;;;;;;11.93;8.32;;;;;;;;;;5067018;28;20041;-56
2021/12/03 03:07:53;;;;;;;11.50;8.60;;;;;;;;;;5069713;28;20043;-56
2021/12/03 03:10:25;;;;;;;11.20;8.32;;;;;;;;;;5070617;28;20146;-56
2021/12/03 03:12:52;;;;;;;13.55;8.98;;;;;;;;;;5070350;28;20043;-56
2021/12/03 03:15:18;;;;;;;19.50;9.43;;;;;;;;;;5069143;28;20364;-57
2021/12/03 03:17:44;;;;;;;13.13;8.45;;;;;;;;;;5068065;28;20032;-57
2021/12/03 03:20:11;;;;;;;12.52;9.15;;;;;;;;;;5070257;28;20475;-58
2021/12/03 03:22:38;;;;;;;12.25;8.00;;;;;;;;;;5070967;28;20040;-58
2021/12/03 03:25:05;;;;;;;9.50;8.52;;;;;;;;;;5069120;28;20032;-58
2021/12/03 03:27:31;;;;;;;12.70;8.15;;;;;;;;;;5069093;28;20056;-57
2021/12/03 03:29:58;;;;;;;12.18;8.27;;;;;;;;;;5069774;28;20119;-57
2021/12/03 03:32:24;;;;;;;10.43;8.63;;;;;;;;;;5066423;28;20086;-57
2021/12/03 03:34:50;;;;;;;14.68;8.52;;;;;;;;;;5069489;28;20063;-57
2021/12/03 03:37:17;;;;;;;11.40;8.60;;;;;;;;;;5070816;28;20078;-57
2021/12/03 03:39:43;;;;;;;10.98;8.50;;;;;;;;;;5063810;28;20391;-57
2021/12/03 03:42:09;;;;;;;11.98;7.65;;;;;;;;;;5068738;28;20402;-57
2021/12/03 03:44:36;;;;;;;13.93;8.25;;;;;;;;;;5069405;28;20048;-57
2021/12/03 03:47:02;;;;;;;12.73;9.27;;;;;;;;;;5070333;28;20055;-57
2021/12/03 03:49:29;;;;;;;12.25;8.55;;;;;;;;;;5064185;28;20044;-57
2021/12/03 03:51:56;;;;;;;11.43;7.93;;;;;;;;;;5070003;28;20075;-57
2021/12/03 03:54:22;;;;;;;11.60;8.00;;;;;;;;;;5067857;28;20166;-56
2021/12/03 03:56:49;;;;;;;11.80;7.65;;;;;;;;;;5067693;28;20085;-57
2021/12/03 03:59:18;;;;;;;9.30;7.35;;;;;;;;;;5068398;28;20045;-57
2021/12/03 04:01:45;;;;;;;13.00;7.88;;;;;;;;;;5069966;28;20435;-57
2021/12/03 04:04:12;;;;;;;9.93;7.30;;;;;;;;;;5068630;28;20044;-57
2021/12/03 04:06:38;;;;;;;12.65;8.30;;;;;;;;;;5069729;28;20079;-56
2021/12/03 04:09:04;;;;;;;10.15;6.95;;;;;;;;;;5065361;28;20041;-57
2021/12/03 04:11:30;;;;;;;10.43;7.05;;;;;;;;;;5066335;28;20052;-57
2021/12/03 04:13:56;;;;;;;11.38;7.68;;;;;;;;;;5064324;28;20047;-57
2021/12/03 04:16:22;;;;;;;11.30;7.15;;;;;;;;;;5065623;28;20047;-56
2021/12/03 04:18:48;;;;;;;11.20;7.35;;;;;;;;;;5067139;28;20435;-56
2021/12/03 04:21:15;;;;;;;10.95;7.43;;;;;;;;;;5067681;28;20036;-57
2021/12/03 04:23:41;;;;;;;11.57;7.57;;;;;;;;;;5067890;28;20158;-57
2021/12/03 04:26:08;;;;;;;14.02;7.35;;;;;;;;;;5069050;28;20037;-57
2021/12/03 04:28:34;;;;;;;9.15;7.22;;;;;;;;;;5068112;28;20132;-56
2021/12/03 04:31:00;;;;;;;10.05;8.00;;;;;;;;;;5067025;28;20435;-56
2021/12/03 04:33:26;;;;;;;9.45;7.40;;;;;;;;;;5068927;28;20035;-57
2021/12/03 04:35:52;;;;;;;11.45;7.82;;;;;;;;;;5067619;28;20069;-57
2021/12/03 04:38:18;;;;;;;8.88;7.13;;;;;;;;;;5068458;28;20049;-57
2021/12/03 04:40:44;;;;;;;11.20;7.43;;;;;;;;;;5066766;28;20040;-57
2021/12/03 04:43:11;;;;;;;11.82;7.60;;;;;;;;;;5069905;28;20044;-57
2021/12/03 04:45:37;;;;;;;12.65;7.55;;;;;;;;;;5067854;28;20040;-56
2021/12/03 04:48:04;;;;;;;14.38;7.63;;;;;;;;;;5068773;28;20044;-57
2021/12/03 04:50:32;;;;;;;13.38;7.75;;;;;;;;;;5066222;28;20056;-56
2021/12/03 04:52:58;;;;;;;12.02;7.50;;;;;;;;;;5066782;28;20036;-57
2021/12/03 04:55:24;;;;;;;8.98;7.13;;;;;;;;;;5067931;28;20037;-56
2021/12/03 04:57:53;;;;;;;13.43;7.45;;;;;;;;;;5067390;28;20495;-57
2021/12/03 05:00:20;;;;;;;11.00;7.75;;;;;;;;;;5066504;28;20060;-56
2021/12/03 05:02:47;;;;;;;15.15;7.85;;;;;;;;;;5066984;28;20087;-57
2021/12/03 05:05:13;;;;;;;11.68;7.82;;;;;;;;;;5068479;28;20032;-57
2021/12/03 05:10:06;;;;;;;11.52;7.47;;;;;;;;;;5068415;28;20036;-57
2021/12/03 05:12:33;;;;;;;12.55;7.50;;;;;;;;;;5066776;28;20097;-57
2021/12/03 05:15:00;;;;;;;10.30;6.82;;;;;;;;;;5069634;28;20036;-57
2021/12/03 05:17:26;;;;;;;13.02;7.35;;;;;;;;;;5068367;28;20042;-56
2021/12/03 05:19:52;;;;;;;10.93;7.90;;;;;;;;;;5069844;28;20182;-57
2021/12/03 05:22:18;;;;;;;9.57;7.00;;;;;;;;;;5063164;28;20466;-57
2021/12/03 05:24:47;;;;;;;10.13;6.95;;;;;;;;;;5068878;28;20415;-56
2021/12/03 05:27:14;;;;;;;9.80;6.75;;;;;;;;;;5067050;28;20052;-56
2021/12/03 05:29:41;;;;;;;10.73;7.57;;;;;;;;;;5061083;28;20052;-57
2021/12/03 05:32:07;;;;;;;11.52;7.13;;;;;;;;;;5067188;28;20423;-58
2021/12/03 05:34:34;;;;;;;11.20;7.57;;;;;;;;;;5066043;28;20090;-57
2021/12/03 05:37:02;;;;;;;11.80;6.97;;;;;;;;;;5065805;28;20064;-55
2021/12/03 05:39:28;;;;;;;13.05;6.30;;;;;;;;;;5068818;28;20055;-56
2021/12/03 05:41:54;;;;;;;8.35;6.25;;;;;;;;;;5069988;28;20483;-57
2021/12/03 05:44:20;;;;;;;9.27;6.30;;;;;;;;;;5070442;28;20047;-57
2021/12/03 05:46:46;;;;;;;13.63;6.22;;;;;;;;;;5070460;28;20047;-56
2021/12/03 05:49:12;;;;;;;9.00;5.53;;;;;;;;;;5070353;28;20422;-57
2021/12/03 05:51:38;;;;;;;9.70;6.43;;;;;;;;;;5071223;28;20033;-57
2021/12/03 05:54:04;;;;;;;9.30;5.65;;;;;;;;;;5070713;28;20044;-57
2021/12/03 05:56:31;;;;;;;11.90;6.07;;;;;;;;;;5070315;28;20124;-57
2021/12/03 05:58:57;;;;;;;10.85;5.93;;;;;;;;;;5072447;28;20032;-57
2021/12/03 06:01:23;;;;;;;11.85;6.25;;;;;;;;;;5068772;28;20117;-57
2021/12/03 06:03:49;;;;;;;8.73;5.88;;;;;;;;;;5071879;28;20438;-56
2021/12/03 06:06:15;;;;;;;9.65;5.95;;;;;;;;;;5067766;28;20074;-57
2021/12/03 06:08:42;;;;;;;9.38;6.28;;;;;;;;;;5072625;28;20033;-57
2021/12/03 06:11:08;;;;;;;10.82;6.35;;;;;;;;;;5071546;28;20036;-57
2021/12/03 06:13:39;;;;;;;10.75;5.60;;;;;;;;;;5072160;28;20040;-57
2021/12/03 06:16:05;;;;;;;13.18;6.43;;;;;;;;;;5070702;28;20044;-57
2021/12/03 06:18:31;;;;;;;14.50;6.00;;;;;;;;;;5068799;28;21193;-57
2021/12/03 06:20:57;;;;;;;9.88;6.28;;;;;;;;;;5069508;28;20044;-57
2021/12/03 06:23:23;;;;;;;10.07;5.97;;;;;;;;;;5069427;28;20036;-57
2021/12/03 06:25:49;;;;;;;9.52;6.00;;;;;;;;;;5058403;28;20052;-57
2021/12/03 06:28:15;;;;;;;9.27;5.15;;;;;;;;;;5064923;28;20479;-57
2021/12/03 06:30:42;;;;;;;9.13;5.47;;;;;;;;;;5070355;28;20464;-57
2021/12/03 06:33:08;;;;;;;11.48;5.78;;;;;;;;;;5072008;28;20115;-57
2021/12/03 06:35:34;;;;;;;9.10;5.60;;;;;;;;;;5070895;28;20048;-57
2021/12/03 06:38:00;;;;;;;10.15;6.15;;;;;;;;;;5071589;28;20046;-57
2021/12/03 06:40:27;;;;;;;13.38;6.85;;;;;;;;;;5067306;28;20123;-57
2021/12/03 06:42:53;;;;;;;11.50;6.18;;;;;;;;;;5070683;28;20047;-57
2021/12/03 06:45:19;;;;;;;12.52;6.75;;;;;;;;;;5070107;28;20036;-58
2021/12/03 06:47:45;;;;;;;13.95;7.53;;;;;;;;;;5069983;28;20111;-57
2021/12/03 06:50:19;;;;;;;11.80;6.88;;;;;;;;;;5067397;28;20120;-57
2021/12/03 06:52:49;;;;;;;13.77;6.78;;;;;;;;;;5068323;28;20028;-57
2021/12/03 06:55:15;;;;;;;13.20;7.18;;;;;;;;;;5069680;28;20112;-57
2021/12/03 06:57:44;;;;;;;11.85;7.07;;;;;;;;;;5070794;28;20041;-57
2021/12/03 07:00:11;;;;;;;16.02;7.53;;;;;;;;;;5070576;28;20073;-57
2021/12/03 07:02:37;;;;;;;14.82;7.20;;;;;;;;;;5070278;28;20140;-57
2021/12/03 07:05:04;;;;;;;12.48;7.55;;;;;;;;;;5062257;28;20123;-58
2021/12/03 07:07:31;;;;;;;13.18;7.78;;;;;;;;;;5065270;28;20756;-57
2021/12/03 07:09:57;;;;;;;9.38;6.90;;;;;;;;;;5066317;28;20045;-56
2021/12/03 07:12:23;;;;;;;16.88;7.53;;;;;;;;;;5068736;28;20036;-58
2021/12/03 07:14:49;;;;;;;12.43;6.70;;;;;;;;;;5061983;28;20060;-57
2021/12/03 07:17:15;;;;;;;15.13;7.15;;;;;;;;;;5062061;28;20045;-57
2021/12/03 07:19:41;;;;;;;13.93;6.68;;;;;;;;;;5064177;28;20041;-57
2021/12/03 07:22:07;;;;;;;13.15;6.72;;;;;;;;;;5057459;28;20116;-57
2021/12/03 07:24:34;;;;;;;13.55;5.95;;;;;;;;;;5060975;28;20048;-57
2021/12/03 07:27:00;;;;;;;13.75;7.10;;;;;;;;;;5070617;28;20051;-57
2021/12/03 07:29:26;;;;;;;11.35;6.65;;;;;;;;;;5067221;28;20037;-58
2021/12/03 07:31:52;;;;;;;12.13;6.28;;;;;;;;;;5065547;28;20086;-57
2021/12/03 07:34:18;;;;;;;11.80;6.70;;;;;;;;;;5063272;28;20495;-58
2021/12/03 07:36:44;;;;;;;12.50;6.30;;;;;;;;;;5063291;28;20067;-57
2021/12/03 07:39:10;;;;;;;12.73;6.80;;;;;;;;;;5068184;28;20394;-58
2021/12/03 07:41:40;;;;;;;11.98;6.07;;;;;;;;;;5070686;28;20078;-57
2021/12/03 07:44:06;;;;;;;11.98;6.30;;;;;;;;;;5068342;28;20040;-57
2021/12/03 07:46:32;;;;;;;11.73;6.72;;;;;;;;;;5070903;28;20533;-57
2021/12/03 07:48:58;;;;;;;13.40;6.28;;;;;;;;;;5068504;28;20050;-57
2021/12/03 07:51:26;;;;;;;14.35;6.57;;;;;;;;;;5068956;28;20131;-57
2021/12/03 07:53:52;;;;;;;16.27;6.45;;;;;;;;;;5069755;28;20079;-57
2021/12/03 07:56:18;;;;;;;15.57;7.50;;;;;;;;;;5070691;28;20024;-56
2021/12/03 07:58:44;;;;;;;14.57;7.78;;;;;;;;;;5069882;28;20051;-58
2021/12/03 08:01:10;;;;;;;19.02;10.00;;;;;;;;;;5070420;28;20052;-57
2021/12/03 08:03:36;;;;;;;16.42;8.80;;;;;;;;;;5068997;28;20056;-57
2021/12/03 08:06:09;;;;;;;19.67;10.30;;;;;;;;;;5068131;28;20053;-57
2021/12/03 08:08:38;;;;;;;16.75;9.90;;;;;;;;;;5069351;28;20111;-58
2021/12/03 08:11:04;;;;;;;19.02;9.57;;;;;;;;;;5068438;28;20045;-56
2021/12/03 08:13:30;;;;;;;18.10;11.02;;;;;;;;;;5069360;28;20037;-58
2021/12/03 08:15:56;;;;;;;18.77;11.68;;;;;;;;;;5066655;28;20043;-57
2021/12/03 08:18:24;;;;;;;22.23;10.40;;;;;;;;;;5067539;28;20041;-57
2021/12/03 08:20:50;;;;;;;19.98;9.80;;;;;;;;;;5064642;28;20080;-56
2021/12/03 08:23:17;;;;;;;17.05;10.70;;;;;;;;;;5063082;28;20445;-57
2021/12/03 08:25:43;;;;;;;18.58;10.02;;;;;;;;;;5054433;28;20036;-57
2021/12/03 08:28:09;;;;;;;19.15;10.82;;;;;;;;;;5068845;28;20570;-58
2021/12/03 08:30:36;;;;;;;21.17;11.82;;;;;;;;;;5068941;28;20560;-58
2021/12/03 08:33:02;;;;;;;21.50;11.52;;;;;;;;;;5068366;28;20394;-56
2021/12/03 08:35:28;;;;;;;21.08;11.50;;;;;;;;;;5068953;28;20033;-57
2021/12/03 08:37:54;;;;;;;21.40;12.45;;;;;;;;;;5066690;28;20052;-57
2021/12/03 08:40:21;;;;;;;18.80;11.82;;;;;;;;;;5069908;28;20465;-58
2021/12/03 08:42:47;;;;;;;20.13;11.77;;;;;;;;;;5069626;28;20052;-57
2021/12/03 08:45:16;;;;;;;24.85;12.73;;;;;;;;;;5070174;28;20097;-57
2021/12/03 08:47:44;;;;;;;25.20;12.82;;;;;;;;;;5069172;28;20048;-57
2021/12/03 08:50:14;;;;;;;24.20;12.50;;;;;;;;;;5069963;28;20053;-57
2021/12/03 08:55:15;;;;;;;20.20;11.55;;;;;;;;;;5069845;28;20398;-56
2021/12/03 08:57:42;;;;;;;22.80;11.80;;;;;;;;;;5070132;28;20043;-56
2021/12/03 09:00:11;;;;;;;18.40;11.38;;;;;;;;;;5070172;28;20041;-57
2021/12/03 09:02:38;;;;;;;18.98;11.05;;;;;;;;;;5069517;28;20128;-58
2021/12/03 09:05:04;;;;;;;25.70;11.57;;;;;;;;;;5070132;28;20403;-58
2021/12/03 09:07:30;;;;;;;18.88;11.18;;;;;;;;;;5069882;28;20414;-57
2021/12/03 09:09:57;;;;;;;23.35;10.55;;;;;;;;;;5069903;28;20128;-57
2021/12/03 09:12:23;;;;;;;30.60;12.18;;;;;;;;;;5068965;28;20049;-57
2021/12/03 09:14:52;;;;;;;17.83;10.45;;;;;;;;;;5070239;28;20139;-57
2021/12/03 09:25:05;;;;;;;20.52;9.50;;;;;;;;;;5073247;28;20053;-57
2021/12/03 09:27:32;;;;;;;17.88;9.25;;;;;;;;;;5073009;28;20068;-57
2021/12/03 09:29:58;;;;;;;21.25;8.52;;;;;;;;;;5073501;28;20040;-57
2021/12/03 09:32:29;;;;;;;15.77;8.73;;;;;;;;;;5073110;28;20095;-57
2021/12/03 09:34:55;;;;;;;18.60;8.90;;;;;;;;;;5073365;28;20036;-57
2021/12/03 09:37:22;;;;;;;19.20;7.70;;;;;;;;;;5072637;28;20036;-57
2021/12/03 09:39:48;;;;;;;21.20;8.00;;;;;;;;;;5073568;28;20063;-57
2021/12/03 09:42:15;;;;;;;18.23;6.57;;;;;;;;;;5071913;28;20127;-57
2021/12/03 09:44:45;;;;;;;19.35;6.88;;;;;;;;;;5073039;28;20051;-57
2021/12/03 09:47:13;;;;;;;19.92;6.90;;;;;;;;;;5071865;28;20045;-57
2021/12/03 09:49:40;;;;;;;18.70;6.80;;;;;;;;;;5072805;28;20146;-58
2021/12/03 09:54:54;;;;;;;19.67;5.97;;;;;;;;;;5073140;28;20040;-57
2021/12/03 09:57:36;;;;;;;13.70;5.28;;;;;;;;;;5070738;28;20112;-57
2021/12/03 10:00:21;;;;;;;16.00;5.85;;;;;;;;;;5069937;28;20507;-57
2021/12/03 10:16:19;;;;;;;16.20;5.63;;;;;;;;;;5071519;28;20084;-57
2021/12/03 10:30:44;;;;;;;16.35;5.05;;;;;;;;;;5047959;28;20049;-58
2021/12/03 10:38:51;;;;;;;16.00;4.53;;;;;;;;;;5049609;28;20128;-58
2021/12/03 10:44:00;;;;;;;14.13;4.93;;;;;;;;;;5048682;28;19916;-57
2021/12/03 11:06:04;;;;;;;15.23;5.40;;;;;;;;;;4977562;28;20059;-58
2021/12/03 11:47:20;;;;;;;13.27;4.22;;;3.50;99.90;;;;;;5070844;28;20083;-56
2021/12/03 11:50:27;;;;;;;7.95;3.45;;;;;;;;;;5070456;28;20047;-58
2021/12/03 12:01:29;;;;;;;9.00;3.20;;;;;;;;;;5069509;28;20051;-57
2021/12/03 12:18:08;;;;;;;8.05;3.65;;;;;;;;;;5053367;28;20406;-57
2021/12/03 12:45:06;;;;;;;8.82;3.75;;;;;;;;;;5069682;28;20050;-58
2021/12/03 13:05:23;;;;;;;7.28;3.28;;;;;;;;;;5051383;28;20049;-58
2021/12/03 14:41:23;;;;;;;12.10;4.13;;;;;;;;;;5049248;28;20597;-57
2021/12/03 14:44:24;;;;;;;8.85;4.63;;;;;;;;;;5048711;28;20053;-57
2021/12/03 14:55:00;;;;;;;7.78;3.85;;;;;;;;;;5049227;28;20040;-57
2021/12/03 15:00:11;;;;;;;10.68;4.35;;;;;;;;;;5048731;28;20114;-57
2021/12/03 15:07:46;;;;;;;7.20;4.20;;;;;;;;;;5071082;28;20076;-57
2021/12/03 15:10:24;;;;;;;7.07;3.65;;;;;;;;;;5071049;28;20464;-57
2021/12/03 15:25:43;;;;;;;7.32;4.38;;;;;;;;;;5070298;28;20060;-56
2021/12/03 15:31:15;;;;;;;9.75;5.13;;;;;;;;;;5071007;28;20056;-58
2021/12/03 15:33:50;;;;;;;9.57;5.25;;;;;;;;;;5071098;28;20040;-57
2021/12/03 15:37:15;;;;;;;7.95;4.63;;;;;;;;;;5070085;28;20036;-57
2021/12/03 15:39:12;;;;;;;11.20;4.85;;;;;;;;;;5063263;28;20089;-58
2021/12/03 15:53:23;;;;;;;9.98;5.00;;;;;;;;;;5071019;28;20040;-57
2021/12/03 15:56:09;;;;;;;6.23;4.60;;;;;;;;;;5069497;28;20048;-57
2021/12/03 16:04:09;;;;;;;9.73;4.97;;;;;;;;;;5069556;28;20095;-57
2021/12/03 16:11:56;;;;;;;8.50;5.82;;;;;;;;;;5047836;28;20044;-57
2021/12/03 16:25:39;;;;;;;8.75;5.80;;;;;;;;;;5006758;28;20493;-57
2021/12/03 16:47:53;;;;;;;10.43;6.78;;;;;;;;;;5008087;28;20042;-57
2021/12/03 16:52:33;;;;;;;8.13;6.57;;;;;;;;;;5047207;28;20052;-58
2021/12/03 16:55:02;;;;;;;9.52;6.65;;;;;;;;;;5047536;28;20491;-56
2021/12/03 16:57:34;;;;;;;10.15;7.43;;;;;;;;;;5066437;28;20105;-57
2021/12/03 17:00:13;;;;;;;9.77;7.05;;;;;;;;;;5069940;28;20127;-56
2021/12/03 17:02:49;;;;;;;9.55;8.07;;;;;;;;;;5068969;28;20051;-56
2021/12/03 17:14:22;;;;;;;9.63;7.93;;;;;;;;;;5069583;28;20047;-57
2021/12/03 17:16:34;;;;;;;11.23;8.15;;;;;;;;;;5064255;28;20051;-56
2021/12/03 17:19:47;;;;;;;11.43;9.60;;;;;;;;;;5069801;28;20044;-56
2021/12/03 17:28:32;;;;;;;11.25;9.70;;;;;;;;;;5069609;28;20044;-56
2021/12/03 17:59:55;;;;;;;16.33;12.98;;;;;;;;;;4955807;28;20154;-55
2021/12/03 18:48:19;;;;;;;19.25;14.75;;;;;;;;;;5071747;28;20056;-56
2021/12/03 18:50:59;;;;;;;18.48;14.80;;;;;;;;;;5070827;28;20071;-56
2021/12/03 18:56:07;;;;;;;20.30;15.18;;;;;;;;;;5071558;28;20036;-56
2021/12/03 18:58:33;;;;;;;17.65;14.15;;;;;;;;;;5072380;28;20040;-56
2021/12/03 19:01:00;;;;;;;21.33;15.70;;;;;;;;;;5071628;28;20457;-55
2021/12/03 19:04:09;;;;;;;18.35;13.93;;;;;;;;;;5068899;28;20499;-55
2021/12/03 19:06:29;;;;;;;18.83;14.68;;;;;;;;;;5069243;28;20072;-56
2021/12/03 19:08:59;;;;;;;19.75;15.15;;;;;;;;;;5071516;28;20119;-56
2021/12/03 19:11:34;;;;;;;17.70;14.25;;;;;;;;;;5071331;28;20048;-56
2021/12/03 19:14:00;;;;;;;19.58;15.52;;;;;;;;;;5067054;28;20040;-56
2021/12/03 19:16:26;;;;;;;19.85;14.57;;;;;;;;;;5070914;28;20114;-55
2021/12/03 19:18:54;;;;;;;20.45;15.20;;;;;;;;;;5070811;28;20425;-56
2021/12/03 19:21:25;;;;;;;21.20;15.52;;;;;;;;;;5070887;28;20044;-56
2021/12/03 19:23:52;;;;;;;22.25;15.63;;;;;;;;;;5070871;28;20037;-56
2021/12/03 19:26:19;;;;;;;23.65;17.75;;;;;;;;;;5069823;28;20040;-56
2021/12/03 19:28:46;;;;;;;21.48;14.82;;;;;;;;;;5069369;28;20112;-56
2021/12/03 19:31:12;;;;;;;20.20;15.38;;;;;;;;;;5070733;28;20391;-55
2021/12/03 19:33:38;;;;;;;21.67;14.48;;;;;;;;;;5070968;28;20036;-56
2021/12/03 19:36:05;;;;;;;23.98;16.20;;;;;;;;;;5070892;28;20139;-57
2021/12/03 19:38:32;;;;;;;21.27;14.90;;;;;;;;;;5070605;28;20126;-56
2021/12/03 19:41:01;;;;;;;22.23;15.35;;;;;;;;;;5070773;28;20466;-56
2021/12/03 19:43:35;;;;;;;26.23;16.30;;;;;;;;;;5070771;28;20074;-56
2021/12/03 19:46:04;;;;;;;23.70;16.13;;;;;;;;;;5070706;28;20044;-55
2021/12/03 19:48:37;;;;;;;22.73;15.73;;;;;;;;;;5070554;28;20059;-56
2021/12/03 19:51:11;;;;;;;24.05;16.60;;;;;;;;;;5070211;28;20059;-56
2021/12/03 19:53:43;;;;;;;22.45;16.50;;;;;;;;;;5070536;28;20071;-56
2021/12/03 19:56:09;;;;;;;21.50;16.13;;;;;;;;;;5070732;28;20055;-56
2021/12/03 19:58:35;;;;;;;24.25;16.38;;;;;;;;;;5067153;28;20036;-56
2021/12/03 20:01:01;;;;;;;22.13;16.00;;;;;;;;;;5068777;28;20495;-56
2021/12/03 20:03:27;;;;;;;23.13;17.05;;;;;;;;;;5070271;28;20060;-56
2021/12/03 20:05:53;;;;;;;24.40;16.55;;;;;;;;;;5070369;28;20036;-56
2021/12/03 20:08:21;;;;;;;25.20;16.55;;;;;;;;;;5070569;28;20459;-56
2021/12/03 20:10:49;;;;;;;27.17;18.05;;;;;;;;;;5069688;28;20127;-56
2021/12/03 20:13:21;;;;;;;29.02;19.35;;;;;;;;;;5070343;28;20044;-56
2021/12/03 20:15:59;;;;;;;23.63;17.17;;;;;;;;;;5070143;28;20052;-57
2021/12/03 20:18:33;;;;;;;23.35;16.25;;;;;;;;;;5067005;28;20056;-56
2021/12/03 20:21:00;;;;;;;23.88;17.15;;;;;;;;;;5070472;28;20089;-56
2021/12/03 20:23:32;;;;;;;23.48;17.05;;;;;;;;;;5069903;28;20039;-57
2021/12/03 20:31:12;;;;;;;26.90;16.52;;;;;;;;;;5069950;28;20120;-56
2021/12/03 20:39:02;;;;;;;21.70;15.60;;;;;;;;;;5026139;28;20067;-56
2021/12/03 20:42:19;;;;;;;24.60;16.42;;;;;;;;;;5026848;28;20045;-56
2021/12/03 20:46:51;;;;;;;22.15;15.68;;;;;;;;;;5027335;28;20099;-56
2021/12/03 20:54:34;;;;;;;23.25;15.65;;;;;;;;;;5027141;28;20117;-56
2021/12/03 20:57:29;;;;;;;24.17;16.30;;;;;;;;;;5027037;28;20056;-55
2021/12/03 21:08:34;;;;;;;20.92;14.90;;;;;;;;;;5027437;28;20042;-56
2021/12/03 21:11:22;;;;;;;26.13;14.93;;;;;;;;;;5028220;28;20531;-55
2021/12/03 21:13:49;;;;;;;22.45;14.65;;;;;;;;;;5031289;28;20504;-55
2021/12/03 21:21:42;;;;;;;20.13;13.98;;;;;;;;;;5073499;28;20090;-56
2021/12/03 21:24:09;;;;;;;19.00;14.18;;;;;;;;;;5073278;28;20037;-56
2021/12/03 21:26:39;;;;;;;20.60;14.68;;;;;;;;;;5071601;28;20051;-56
2021/12/03 21:30:00;;;;;;;20.58;13.98;;;;;;;;;;5072865;28;20188;-56
2021/12/03 21:32:03;;;;;;;20.38;14.63;;;;;;;;;;5069298;28;20037;-56
2021/12/03 21:42:39;;;;;;;23.60;15.18;;;;;;;;;;5070599;28;20158;-56
2021/12/03 21:45:05;;;;;;;22.95;14.70;;;;;;;;;;5071795;28;20044;-56
2021/12/03 21:47:32;;;;;;;19.73;14.32;;;;;;;;;;5071829;28;20165;-56
2021/12/03 21:49:58;;;;;;;22.60;15.13;;;;;;;;;;5072302;28;20032;-56
2021/12/03 21:52:25;;;;;;;24.77;16.02;;;;;;;;;;5072495;28;20439;-56
2021/12/03 21:54:52;;;;;;;23.38;16.08;;;;;;;;;;5072866;28;20048;-56
2021/12/03 21:57:19;;;;;;;22.80;16.58;;;;;;;;;;5072013;28;20029;-56
2021/12/03 21:59:45;;;;;;;21.50;15.10;;;;;;;;;;5072660;28;20069;-56
2021/12/03 22:02:11;;;;;;;23.42;15.32;;;;;;;;;;5069813;28;20056;-56
2021/12/03 22:04:37;;;;;;;24.25;15.95;;;;;;;;;;5065402;28;20139;-56
2021/12/03 22:07:11;;;;;;;23.92;15.68;;;;;;;;;;5069233;28;20392;-57
2021/12/03 22:09:37;;;;;;;24.80;15.75;;;;;;;;;;5065516;28;20039;-56
2021/12/03 22:12:03;;;;;;;22.88;15.00;;;;;;;;;;5067198;28;20499;-57
2021/12/03 22:14:29;;;;;;;21.35;13.82;;;;;;;;;;5062415;28;20487;-56
2021/12/03 22:16:55;;;;;;;21.67;15.07;;;;;;;;;;5062701;28;20076;-56
2021/12/03 22:19:21;;;;;;;20.40;14.90;;;;;;;;;;5076480;28;20037;-56
2021/12/03 22:21:47;;;;;;;22.05;15.32;;;;;;;;;;5062254;28;20036;-57
2021/12/03 22:24:13;;;;;;;23.80;16.08;;;;;;;;;;5063263;28;20063;-57
2021/12/03 22:26:39;;;;;;;22.98;15.35;;;;;;;;;;5069361;28;20521;-56
2021/12/03 22:29:05;;;;;;;23.38;15.18;;;;;;;;;;5066898;28;20075;-57
2021/12/03 22:31:32;;;;;;;23.88;15.82;;;;;;;;;;5063757;28;20040;-57
2021/12/03 22:33:58;;;;;;;23.85;15.15;;;;;;;;;;5064148;28;20411;-56
2021/12/03 22:36:24;;;;;;;24.75;15.52;;;;;;;;;;5068051;28;20131;-57
2021/12/03 22:38:50;;;;;;;22.83;15.57;;;;;;;;;;5067187;28;20123;-57
2021/12/03 22:41:16;;;;;;;22.13;15.60;;;;;;;;;;5071243;28;20037;-56